createdAt,value
2023-06-11T20:23:58.393Z,1014.39
2023-06-11T20:24:58.328Z,1014.41
2023-06-11T20:27:02.351Z,1014.43
2023-06-11T20:28:02.316Z,1014.46
2023-06-11T20:29:02.349Z,1014.47
2023-06-11T20:30:03.728Z,1014.45
2023-06-11T20:31:02.336Z,1014.46
2023-06-11T20:32:02.399Z,1014.50
2023-06-11T20:33:02.408Z,1014.50
2023-06-11T20:34:02.365Z,1014.50
2023-06-11T20:35:02.403Z,1014.44
2023-06-11T20:36:02.428Z,1014.53
2023-06-11T20:37:02.353Z,1014.51
2023-06-11T20:38:03.219Z,1014.53
2023-06-11T20:39:02.380Z,1014.53
2023-06-11T20:40:02.342Z,1014.58
2023-06-11T20:41:02.397Z,1014.57
2023-06-11T20:42:02.365Z,1014.58
2023-06-11T20:43:02.356Z,1014.59
2023-06-11T20:44:02.375Z,1014.62
2023-06-11T20:45:02.397Z,1014.62
2023-06-11T20:46:08.643Z,1014.61
2023-06-11T20:47:03.329Z,1014.62
2023-06-11T20:48:02.656Z,1014.65
2023-06-11T20:49:02.557Z,1014.67
2023-06-11T20:50:02.421Z,1014.64
2023-06-11T20:51:02.410Z,1014.66
2023-06-11T20:52:02.383Z,1014.66
2023-06-11T20:53:02.513Z,1014.68
2023-06-11T20:54:02.397Z,1014.70
2023-06-11T20:55:02.485Z,1014.72
2023-06-11T20:56:02.495Z,1014.73
2023-06-11T20:57:02.484Z,1014.71
2023-06-11T20:58:02.489Z,1014.74
2023-06-11T20:59:02.491Z,1014.69
2023-06-11T21:00:03.205Z,1014.70
2023-06-11T21:01:02.451Z,1014.72
2023-06-11T21:02:02.520Z,1014.72
2023-06-11T21:03:02.563Z,1014.73
2023-06-11T21:04:03.805Z,1014.69
2023-06-11T21:05:02.541Z,1014.72
2023-06-11T21:06:02.567Z,1014.74
2023-06-11T21:07:03.212Z,1014.71
2023-06-11T21:08:02.415Z,1014.72
2023-06-11T21:09:02.419Z,1014.73
2023-06-11T21:10:02.446Z,1014.74
2023-06-11T21:11:03.709Z,1014.72
2023-06-11T21:12:02.462Z,1014.77
2023-06-11T21:13:02.419Z,1014.72
2023-06-11T21:14:13.681Z,1014.78
2023-06-11T21:15:02.436Z,1014.75
2023-06-11T21:16:02.482Z,1014.78
2023-06-11T21:17:03.210Z,1014.80
2023-06-11T21:18:02.449Z,1014.83
2023-06-11T21:19:02.452Z,1014.76
2023-06-11T21:20:02.464Z,1014.77
2023-06-11T21:21:02.468Z,1014.74
2023-06-11T21:22:02.452Z,1014.77
2023-06-11T21:23:02.463Z,1014.75
2023-06-11T21:24:03.399Z,1014.79
2023-06-11T21:25:02.481Z,1014.76
2023-06-11T21:26:03.221Z,1014.77
2023-06-11T21:27:02.479Z,1014.76
2023-06-11T21:28:02.477Z,1014.77
2023-06-11T21:29:02.554Z,1014.81
2023-06-11T21:30:02.488Z,1014.82
2023-06-11T21:31:02.478Z,1014.81
2023-06-11T21:32:02.646Z,1014.81
2023-06-11T21:33:02.593Z,1014.83
2023-06-11T21:34:02.618Z,1014.83
2023-06-11T21:35:02.574Z,1014.84
2023-06-11T21:36:02.515Z,1014.84
2023-06-11T21:37:02.512Z,1014.81
2023-06-11T21:38:02.503Z,1014.81
2023-06-11T21:39:02.520Z,1014.85
2023-06-11T21:40:02.506Z,1014.85
2023-06-11T21:41:02.524Z,1014.84
2023-06-11T21:42:02.508Z,1014.85
2023-06-11T21:43:02.590Z,1014.86
2023-06-11T21:44:02.564Z,1014.87
2023-06-11T21:45:02.521Z,1014.88
2023-06-11T21:46:02.546Z,1014.91
2023-06-11T21:47:02.606Z,1014.88
2023-06-11T21:48:02.618Z,1014.90
2023-06-11T21:49:02.547Z,1014.87
2023-06-11T21:50:03.042Z,1014.92
2023-06-11T21:51:02.534Z,1014.91
2023-06-11T21:52:02.538Z,1014.92
2023-06-11T21:53:02.552Z,1014.93
2023-06-11T21:54:02.568Z,1014.94
2023-06-11T21:55:02.558Z,1014.92
2023-06-11T21:56:02.573Z,1014.92
2023-06-11T21:57:02.557Z,1014.93
2023-06-11T21:58:02.562Z,1014.93
2023-06-11T21:59:02.614Z,1014.88
2023-06-11T22:00:02.580Z,1014.97
2023-06-11T22:01:02.629Z,1014.94
2023-06-11T22:02:02.574Z,1014.91
2023-06-11T22:03:02.590Z,1014.94
2023-06-11T22:04:02.668Z,1014.94
2023-06-11T22:05:02.583Z,1014.93
2023-06-11T22:06:02.642Z,1014.96
2023-06-11T22:07:02.594Z,1014.95
2023-06-11T22:08:02.613Z,1014.96
2023-06-11T22:09:02.593Z,1014.95
2023-06-11T22:10:02.614Z,1014.95
2023-06-11T22:11:02.598Z,1014.98
2023-06-11T22:12:03.141Z,1014.97
2023-06-11T22:13:02.600Z,1015.00
2023-06-11T22:14:02.621Z,1015.01
2023-06-11T22:15:02.607Z,1015.02
2023-06-11T22:16:02.647Z,1015.00
2023-06-11T22:17:02.687Z,1015.03
2023-06-11T22:18:02.652Z,1015.01
2023-06-11T22:19:02.620Z,1015.04
2023-06-11T22:20:02.622Z,1015.05
2023-06-11T22:21:02.632Z,1015.04
2023-06-11T22:22:02.638Z,1015.07
2023-06-11T22:23:02.643Z,1015.09
2023-06-11T22:24:02.677Z,1015.07
2023-06-11T22:25:03.254Z,1015.07
2023-06-11T22:26:02.646Z,1015.10
2023-06-11T22:27:02.659Z,1015.08
2023-06-11T22:28:02.702Z,1015.14
2023-06-11T22:29:03.265Z,1015.13
2023-06-11T22:30:02.661Z,1015.18
2023-06-11T22:31:02.722Z,1015.16
2023-06-11T22:32:02.682Z,1015.19
2023-06-11T22:33:02.827Z,1015.19
2023-06-11T22:34:02.661Z,1015.21
2023-06-11T22:35:02.669Z,1015.19
2023-06-11T22:36:03.289Z,1015.19
2023-06-11T22:37:02.666Z,1015.18
2023-06-11T22:38:02.698Z,1015.18
2023-06-11T22:39:02.681Z,1015.21
2023-06-11T22:40:02.695Z,1015.21
2023-06-11T22:41:02.684Z,1015.21
2023-06-11T22:42:03.291Z,1015.19
2023-06-11T22:43:02.689Z,1015.21
2023-06-11T22:44:02.688Z,1015.22
2023-06-11T22:45:02.821Z,1015.21
2023-06-11T22:46:02.737Z,1015.26
2023-06-11T22:47:02.713Z,1015.23
2023-06-11T22:48:02.728Z,1015.24
2023-06-11T22:49:02.707Z,1015.26
2023-06-11T22:50:02.700Z,1015.26
2023-06-11T22:51:02.730Z,1015.24
2023-06-11T22:52:02.705Z,1015.26
2023-06-11T22:53:02.709Z,1015.25
2023-06-11T22:54:02.705Z,1015.24
2023-06-11T22:55:02.707Z,1015.24
2023-06-11T22:56:02.741Z,1015.25
2023-06-11T22:57:02.729Z,1015.26
2023-06-11T22:58:02.721Z,1015.24
2023-06-11T22:59:02.724Z,1015.25
2023-06-11T23:00:02.734Z,1015.23
2023-06-11T23:01:02.732Z,1015.26
2023-06-11T23:02:02.804Z,1015.27
2023-06-11T23:03:02.814Z,1015.28
2023-06-11T23:04:02.759Z,1015.26
2023-06-11T23:05:02.755Z,1015.27
2023-06-11T23:06:02.748Z,1015.28
2023-06-11T23:07:02.750Z,1015.34
2023-06-11T23:08:10.008Z,1015.31
2023-06-11T23:10:06.763Z,1015.34
2023-06-11T23:11:06.746Z,1015.33
2023-06-11T23:13:10.751Z,1015.32
2023-06-11T23:14:10.740Z,1015.37
2023-06-11T23:16:14.824Z,1015.43
2023-06-11T23:17:14.768Z,1015.44
2023-06-11T23:19:07.714Z,1015.43
2023-06-11T23:20:07.683Z,1015.41
2023-06-11T23:22:11.725Z,1015.48
2023-06-11T23:23:11.696Z,1015.47
2023-06-11T23:25:15.734Z,1015.42
2023-06-11T23:26:15.689Z,1015.45
2023-06-11T23:28:19.715Z,1015.42
2023-06-11T23:29:19.701Z,1015.43
2023-06-11T23:31:23.769Z,1015.41
2023-06-11T23:32:23.831Z,1015.41
2023-06-11T23:34:28.225Z,1015.36
2023-06-11T23:35:28.200Z,1015.38
2023-06-11T23:36:28.208Z,1015.39
2023-06-11T23:37:28.222Z,1015.41
2023-06-11T23:38:28.204Z,1015.37
2023-06-11T23:39:28.221Z,1015.39
2023-06-11T23:40:28.217Z,1015.37
2023-06-11T23:41:28.225Z,1015.38
2023-06-11T23:42:28.216Z,1015.38
2023-06-11T23:43:29.113Z,1015.37
2023-06-11T23:44:28.214Z,1015.40
2023-06-11T23:45:28.213Z,1015.38
2023-06-11T23:46:28.248Z,1015.40
2023-06-11T23:47:28.284Z,1015.39
2023-06-11T23:48:28.218Z,1015.37
2023-06-11T23:49:28.223Z,1015.40
2023-06-11T23:50:28.226Z,1015.39
2023-06-11T23:51:28.246Z,1015.38
2023-06-11T23:52:28.226Z,1015.40
2023-06-11T23:53:28.223Z,1015.37
2023-06-11T23:54:28.234Z,1015.36
2023-06-11T23:55:28.230Z,1015.38
2023-06-11T23:56:28.248Z,1015.43
2023-06-11T23:57:28.242Z,1015.44
2023-06-11T23:58:28.254Z,1015.40
2023-06-11T23:59:28.257Z,1015.36
